Lucerne, IN (46950)

2:13 PM EDT on July 24, 2014 (GMT -0400)
Windsor Forest (KINLOGAN4) Elev 669 ft | 40.76 °N, 86.30 °W | Change Station

Current weather conditions updated 4 seconds ago

Partly Cloudy
Partly Cloudy
73.5 °F
Feels Like 77 °F
N
6.9
Wind Variable Wind from NNE
Gusts 6.9 mph

Today is forecast to be Cooler than yesterday.

Today
High -- | Low -- °F
--% Chance of Precip.
Yesterday
High -- | Low -- °F
Precip. -- in
6:34 AM 9:09 PM
Waning Crescent, 4% visible
Pressure 30.12 in
Visibility 10.0 miles
Clouds Mostly Cloudy 4900 ft
Heat Index 77 °F
Dew Point 59 °F
Humidity 60%
Rainfall 0.00 in
Snow Depth Not available.
UV 6 out of 12
Pollen 6.60 out of 12
Air Quality Not available.
Flu Activity Not available.
METAR KGGP 241755Z AUTO 02007G14KT 10SM BKN049 21/11 A3012 RMK AO2

More Conditions Fewer Conditions

Pressure 30.12 in
Visibility 10.0 miles
Clouds Mostly Cloudy 4900 ft
Heat Index 77 °F
Dew Point 59 °F
Humidity 60%
Rainfall 0.00 in
Snow Depth Not available.
UV 6 out of 12
Pollen 6.60 out of 12
Air Quality Not available.
Flu Activity Not available.
METAR KGGP 241755Z AUTO 02007G14KT 10SM BKN049 21/11 A3012 RMK AO2

More Conditions Fewer Conditions

10-Day Weather Forecast

Almanac

Astronomy

Jul. 24, 2014 Rise Set
Actual Time 6:34 AM EDT 9:09 PM EDT
Civil Twilight 6:02 AM EDT 9:40 PM EDT
Nautical Twilight 5:23 AM EDT 10:20 PM EDT
Astronomical Twilight 4:38 AM EDT 11:04 PM EDT
Moon 4:42 AM EDT 7:23 PM EDT
Length of Visible Light 15h 37m
Length of Day
14h 34m
Tomorrow will be 1m 48s shorter.
Waning Crescent, 4% of the Moon is Illuminated
Today
Waning Crescent
Jul 26
New
Aug 3
First Quarter
Aug 10
Full
Aug 17
Last Quarter

Today's Extremes

State Highs State Lows

Community

WunderPhotos

Upload Photos

1,737,087 photos uploaded!

Nearby

Snow Depth

Station Depth Elevation
No new snow has been reported.

Earthquake Activity

City Distance Mag. Time & Date
No recent earthquake activity has been reported nearby.
Minimum magnitude displayed is 2.5.

Coastal Water Temperatures

Place Temperature
No Stations Reporting

Nearby Weather Stations

Station Location Temp. Heat Index Dew Point Humidity Wind Precip. Elev Updated Type
Windsor Forest, Logansport, IN 73.5 °F 77 °F 59 °F 60% NNE  at  6.9 mph 0.00 in / hr 669 ft 2:13 PM EDT Rapid Fire
400 west, Rochester, IN 72.5 °F 77 °F 55 °F 55% NE  at  6.0 mph 0.00 in / hr 745 ft 2:13 PM EDT Rapid Fire
4th Street, Rochester, IN 70.9 °F 77 °F 51 °F 50% NE  at  0.0 mph 0.00 in / hr 781 ft 2:13 PM EDT Normal
Bluewater Drive, Monticello, IN 76.6 °F 78 °F 66 °F 70% NE  at  3.2 mph - / hr 623 ft 2:11 PM EDT Normal
Elite Ag Solutions, Peru, IN 75.0 °F 78 °F 54 °F 49% North  at  7.0 mph 0.00 in / hr 812 ft 2:12 PM EDT Normal
Bad B-rad's Weather Pad, Galveston, IN 76.8 °F 78 °F 53 °F 44% ESE  at  9.2 mph 0.00 in / hr 761 ft 2:13 PM EDT Rapid Fire
southern cass co., Galveston, IN 73.2 °F 77 °F 57 °F 56% NE  at  1.3 mph 0.00 in / hr 778 ft 2:13 PM EDT Rapid Fire

Show More Stations Show Fewer Stations